sensor_id;sensor_type;location;lat;lon;timestamp;pressure;altitude;pressure_sealevel;temperature;humidity
16094;BME280;8151;47.824;12.092;2022-10-17T00:01:10;96896.91;;;16.09;74.16
16094;BME280;8151;47.824;12.092;2022-10-17T00:03:39;96898.53;;;16.10;74.04
16094;BME280;8151;47.824;12.092;2022-10-17T00:06:11;96899.38;;;16.11;74.14
16094;BME280;8151;47.824;12.092;2022-10-17T00:08:40;96897.72;;;16.10;73.83
16094;BME280;8151;47.824;12.092;2022-10-17T00:11:14;96897.72;;;16.10;74.10
16094;BME280;8151;47.824;12.092;2022-10-17T00:13:44;96898.72;;;16.09;74.16
16094;BME280;8151;47.824;12.092;2022-10-17T00:16:13;96897.09;;;16.08;73.92
16094;BME280;8151;47.824;12.092;2022-10-17T00:18:41;96892.56;;;16.08;73.85
16094;BME280;8151;47.824;12.092;2022-10-17T00:21:14;96892.97;;;16.05;74.19
16094;BME280;8151;47.824;12.092;2022-10-17T00:23:43;96900.13;;;16.05;74.18
16094;BME280;8151;47.824;12.092;2022-10-17T00:26:14;96887.81;;;16.04;74.07
16094;BME280;8151;47.824;12.092;2022-10-17T00:28:45;96903.66;;;16.05;74.13
16094;BME280;8151;47.824;12.092;2022-10-17T00:31:15;96902.78;;;16.05;74.10
16094;BME280;8151;47.824;12.092;2022-10-17T00:33:44;96909.81;;;16.06;74.01
16094;BME280;8151;47.824;12.092;2022-10-17T00:36:14;96904.47;;;16.06;73.72
16094;BME280;8151;47.824;12.092;2022-10-17T00:38:45;96911.19;;;16.02;73.66
16094;BME280;8151;47.824;12.092;2022-10-17T00:41:18;96903.56;;;15.99;74.00
16094;BME280;8151;47.824;12.092;2022-10-17T00:43:53;96908.25;;;15.97;73.91
16094;BME280;8151;47.824;12.092;2022-10-17T00:46:23;96914.63;;;15.96;73.99
16094;BME280;8151;47.824;12.092;2022-10-17T00:48:53;96904.59;;;15.98;74.01
16094;BME280;8151;47.824;12.092;2022-10-17T00:51:26;96905.22;;;16.00;73.83
16094;BME280;8151;47.824;12.092;2022-10-17T00:53:58;96905.88;;;16.02;73.91
16094;BME280;8151;47.824;12.092;2022-10-17T00:56:30;96906.03;;;16.00;73.99
16094;BME280;8151;47.824;12.092;2022-10-17T00:58:59;96917.31;;;15.96;73.81
16094;BME280;8151;47.824;12.092;2022-10-17T01:01:27;96918.66;;;15.91;73.85
16094;BME280;8151;47.824;12.092;2022-10-17T01:03:56;96921.72;;;15.88;73.86
16094;BME280;8151;47.824;12.092;2022-10-17T01:06:24;96928.28;;;15.86;73.65
16094;BME280;8151;47.824;12.092;2022-10-17T01:08:53;96923.13;;;15.84;73.80
16094;BME280;8151;47.824;12.092;2022-10-17T01:11:34;96918.59;;;15.85;73.92
16094;BME280;8151;47.824;12.092;2022-10-17T01:14:09;96924.94;;;15.84;73.59
16094;BME280;8151;47.824;12.092;2022-10-17T01:16:44;96924.69;;;15.79;74.01
16094;BME280;8151;47.824;12.092;2022-10-17T01:19:34;96928.75;;;15.74;74.11
16094;BME280;8151;47.824;12.092;2022-10-17T01:22:09;96925.13;;;15.67;74.11
16094;BME280;8151;47.824;12.092;2022-10-17T01:25:05;96919.91;;;15.59;73.96
16094;BME280;8151;47.824;12.092;2022-10-17T01:27:52;96918.72;;;15.47;74.27
16094;BME280;8151;47.824;12.092;2022-10-17T01:33:16;96918.28;;;15.43;74.50
16094;BME280;8151;47.824;12.092;2022-10-17T01:35:51;96927.75;;;15.46;74.06
16094;BME280;8151;47.824;12.092;2022-10-17T01:38:24;96932.69;;;15.49;74.13
16094;BME280;8151;47.824;12.092;2022-10-17T01:41:00;96923.69;;;15.50;74.07
16094;BME280;8151;47.824;12.092;2022-10-17T01:43:34;96925.53;;;15.49;74.08
16094;BME280;8151;47.824;12.092;2022-10-17T01:46:11;96926.72;;;15.47;73.85
16094;BME280;8151;47.824;12.092;2022-10-17T01:48:44;96925.53;;;15.34;74.25
16094;BME280;8151;47.824;12.092;2022-10-17T01:51:16;96926.16;;;15.22;73.99
16094;BME280;8151;47.824;12.092;2022-10-17T01:53:51;96923.13;;;15.10;74.51
16094;BME280;8151;47.824;12.092;2022-10-17T01:56:23;96928.38;;;15.03;74.44
16094;BME280;8151;47.824;12.092;2022-10-17T01:58:56;96931.78;;;14.97;74.54
16094;BME280;8151;47.824;12.092;2022-10-17T02:01:28;96930.66;;;14.91;74.73
16094;BME280;8151;47.824;12.092;2022-10-17T02:04:00;96927.53;;;14.88;75.11
16094;BME280;8151;47.824;12.092;2022-10-17T02:06:33;96929.38;;;14.87;74.90
16094;BME280;8151;47.824;12.092;2022-10-17T02:09:15;96927.53;;;14.88;75.13
16094;BME280;8151;47.824;12.092;2022-10-17T02:11:51;96925.34;;;14.91;74.86
16094;BME280;8151;47.824;12.092;2022-10-17T02:14:31;96923.78;;;14.97;74.43
16094;BME280;8151;47.824;12.092;2022-10-17T02:17:12;96927.72;;;15.01;74.27
16094;BME280;8151;47.824;12.092;2022-10-17T02:19:53;96924.44;;;14.99;74.55
16094;BME280;8151;47.824;12.092;2022-10-17T02:22:29;96916.59;;;14.98;74.47
16094;BME280;8151;47.824;12.092;2022-10-17T02:25:08;96934.63;;;14.95;74.64
16094;BME280;8151;47.824;12.092;2022-10-17T02:27:42;96929.63;;;14.92;74.73
16094;BME280;8151;47.824;12.092;2022-10-17T02:30:23;96924.50;;;14.91;74.65
16094;BME280;8151;47.824;12.092;2022-10-17T02:32:57;96931.66;;;14.90;74.85
16094;BME280;8151;47.824;12.092;2022-10-17T02:35:30;96926.53;;;14.89;74.53
16094;BME280;8151;47.824;12.092;2022-10-17T02:38:01;96925.50;;;14.90;74.74
16094;BME280;8151;47.824;12.092;2022-10-17T02:40:31;96923.78;;;14.97;74.51
16094;BME280;8151;47.824;12.092;2022-10-17T02:43:00;96930.00;;;15.04;74.27
16094;BME280;8151;47.824;12.092;2022-10-17T02:45:29;96926.34;;;15.05;74.49
16094;BME280;8151;47.824;12.092;2022-10-17T02:48:03;96925.34;;;15.06;74.38
16094;BME280;8151;47.824;12.092;2022-10-17T02:50:43;96924.50;;;15.06;74.22
16094;BME280;8151;47.824;12.092;2022-10-17T02:53:16;96926.00;;;15.08;74.47
16094;BME280;8151;47.824;12.092;2022-10-17T02:55:52;96935.00;;;15.07;74.37
16094;BME280;8151;47.824;12.092;2022-10-17T02:58:24;96932.25;;;15.01;74.06
16094;BME280;8151;47.824;12.092;2022-10-17T03:00:55;96935.53;;;14.88;74.29
16094;BME280;8151;47.824;12.092;2022-10-17T03:03:27;96936.13;;;14.75;74.36
16094;BME280;8151;47.824;12.092;2022-10-17T03:05:57;96931.91;;;14.66;74.71
16094;BME280;8151;47.824;12.092;2022-10-17T03:08:25;96942.44;;;14.59;74.72
16094;BME280;8151;47.824;12.092;2022-10-17T03:10:54;96951.63;;;14.56;74.57
16094;BME280;8151;47.824;12.092;2022-10-17T03:13:22;96934.09;;;14.62;74.63
16094;BME280;8151;47.824;12.092;2022-10-17T03:15:51;96924.34;;;14.69;74.61
16094;BME280;8151;47.824;12.092;2022-10-17T03:18:19;96927.97;;;14.76;74.38
16094;BME280;8151;47.824;12.092;2022-10-17T03:20:48;96932.56;;;14.83;74.39
16094;BME280;8151;47.824;12.092;2022-10-17T03:23:18;96932.84;;;14.88;74.36
16094;BME280;8151;47.824;12.092;2022-10-17T03:25:47;96936.16;;;14.90;74.37
16094;BME280;8151;47.824;12.092;2022-10-17T03:28:15;96933.50;;;14.90;74.19
16094;BME280;8151;47.824;12.092;2022-10-17T03:30:43;96938.47;;;14.93;74.22
16094;BME280;8151;47.824;12.092;2022-10-17T03:33:12;96936.47;;;14.95;73.85
16094;BME280;8151;47.824;12.092;2022-10-17T03:35:40;96947.94;;;14.95;73.92
16094;BME280;8151;47.824;12.092;2022-10-17T03:38:09;96939.78;;;14.97;73.74
16094;BME280;8151;47.824;12.092;2022-10-17T03:40:39;96933.59;;;14.96;74.20
16094;BME280;8151;47.824;12.092;2022-10-17T03:43:07;96931.59;;;14.99;73.80
16094;BME280;8151;47.824;12.092;2022-10-17T03:45:37;96941.41;;;14.98;74.04
16094;BME280;8151;47.824;12.092;2022-10-17T03:48:05;96935.25;;;14.98;73.98
16094;BME280;8151;47.824;12.092;2022-10-17T03:50:34;96942.44;;;14.97;73.74
16094;BME280;8151;47.824;12.092;2022-10-17T03:53:02;96951.25;;;14.98;73.72
16094;BME280;8151;47.824;12.092;2022-10-17T03:55:31;96934.44;;;14.97;73.95
16094;BME280;8151;47.824;12.092;2022-10-17T03:58:01;96940.59;;;14.98;73.71
16094;BME280;8151;47.824;12.092;2022-10-17T04:00:29;96936.94;;;14.99;73.57
16094;BME280;8151;47.824;12.092;2022-10-17T04:02:58;96941.41;;;14.98;73.93
16094;BME280;8151;47.824;12.092;2022-10-17T04:05:26;96943.25;;;14.98;73.73
16094;BME280;8151;47.824;12.092;2022-10-17T04:07:54;96945.91;;;14.98;73.56
16094;BME280;8151;47.824;12.092;2022-10-17T04:10:27;96951.25;;;14.98;73.99
16094;BME280;8151;47.824;12.092;2022-10-17T04:12:55;96948.59;;;14.98;73.94
16094;BME280;8151;47.824;12.092;2022-10-17T04:15:25;96944.94;;;14.99;73.79
16094;BME280;8151;47.824;12.092;2022-10-17T04:17:53;96951.91;;;15.00;73.58
16094;BME280;8151;47.824;12.092;2022-10-17T04:20:22;96952.72;;;15.00;73.54
16094;BME280;8151;47.824;12.092;2022-10-17T04:22:50;96956.22;;;15.01;73.70
16094;BME280;8151;47.824;12.092;2022-10-17T04:25:19;96959.53;;;15.03;73.64
16094;BME280;8151;47.824;12.092;2022-10-17T04:27:47;96960.72;;;15.00;73.24
16094;BME280;8151;47.824;12.092;2022-10-17T04:30:16;96964.03;;;15.02;73.53
16094;BME280;8151;47.824;12.092;2022-10-17T04:32:46;96949.69;;;15.03;73.33
16094;BME280;8151;47.824;12.092;2022-10-17T04:35:14;96952.19;;;15.05;73.26
16094;BME280;8151;47.824;12.092;2022-10-17T04:37:43;96946.22;;;15.03;73.24
16094;BME280;8151;47.824;12.092;2022-10-17T04:40:12;96943.56;;;15.03;72.88
16094;BME280;8151;47.824;12.092;2022-10-17T04:42:40;96948.41;;;14.99;73.15
16094;BME280;8151;47.824;12.092;2022-10-17T04:45:09;96938.75;;;14.98;73.27
16094;BME280;8151;47.824;12.092;2022-10-17T04:47:37;96945.09;;;14.97;73.27
16094;BME280;8151;47.824;12.092;2022-10-17T04:50:08;96939.38;;;15.00;73.50
16094;BME280;8151;47.824;12.092;2022-10-17T04:52:36;96945.75;;;14.99;73.28
16094;BME280;8151;47.824;12.092;2022-10-17T04:55:05;96942.25;;;14.99;73.11
16094;BME280;8151;47.824;12.092;2022-10-17T04:57:34;96941.41;;;14.98;72.99
16094;BME280;8151;47.824;12.092;2022-10-17T05:00:03;96950.44;;;14.97;73.02
16094;BME280;8151;47.824;12.092;2022-10-17T05:02:32;96952.63;;;14.93;73.12
16094;BME280;8151;47.824;12.092;2022-10-17T05:05:01;96952.97;;;14.90;73.28
16094;BME280;8151;47.824;12.092;2022-10-17T05:07:31;96953.44;;;14.94;72.91
16094;BME280;8151;47.824;12.092;2022-10-17T05:09:59;96960.44;;;14.95;72.88
16094;BME280;8151;47.824;12.092;2022-10-17T05:12:28;96966.75;;;14.94;73.23
16094;BME280;8151;47.824;12.092;2022-10-17T05:14:57;96962.25;;;14.94;73.48
16094;BME280;8151;47.824;12.092;2022-10-17T05:17:25;96962.91;;;14.96;73.70
16094;BME280;8151;47.824;12.092;2022-10-17T05:19:54;96965.78;;;14.95;73.47
16094;BME280;8151;47.824;12.092;2022-10-17T05:22:22;96959.78;;;14.93;73.72
16094;BME280;8151;47.824;12.092;2022-10-17T05:24:52;96962.34;;;14.86;73.99
16094;BME280;8151;47.824;12.092;2022-10-17T05:27:20;96967.56;;;14.80;74.14
16094;BME280;8151;47.824;12.092;2022-10-17T05:29:49;96970.97;;;14.73;74.45
16094;BME280;8151;47.824;12.092;2022-10-17T05:32:17;96975.81;;;14.70;74.36
16094;BME280;8151;47.824;12.092;2022-10-17T05:34:45;96976.81;;;14.69;74.71
16094;BME280;8151;47.824;12.092;2022-10-17T05:37:14;96975.34;;;14.66;74.37
16094;BME280;8151;47.824;12.092;2022-10-17T05:39:42;96973.41;;;14.60;74.65
16094;BME280;8151;47.824;12.092;2022-10-17T05:42:18;96977.25;;;14.49;74.95
16094;BME280;8151;47.824;12.092;2022-10-17T05:44:47;96987.66;;;14.36;75.27
16094;BME280;8151;47.824;12.092;2022-10-17T05:47:15;96987.19;;;14.32;75.63
16094;BME280;8151;47.824;12.092;2022-10-17T05:49:44;96993.53;;;14.31;75.32
16094;BME280;8151;47.824;12.092;2022-10-17T05:52:18;96987.06;;;14.26;75.31
16094;BME280;8151;47.824;12.092;2022-10-17T05:54:46;96990.94;;;14.23;74.98
16094;BME280;8151;47.824;12.092;2022-10-17T05:57:15;97002.94;;;14.19;75.09
16094;BME280;8151;47.824;12.092;2022-10-17T05:59:45;97003.03;;;14.26;74.95
16094;BME280;8151;47.824;12.092;2022-10-17T06:02:13;97004.19;;;14.31;74.90
16094;BME280;8151;47.824;12.092;2022-10-17T06:04:42;97003.34;;;14.31;74.63
16094;BME280;8151;47.824;12.092;2022-10-17T06:07:12;97011.16;;;14.32;74.23
16094;BME280;8151;47.824;12.092;2022-10-17T06:09:41;97000.03;;;14.29;74.41
16094;BME280;8151;47.824;12.092;2022-10-17T06:12:09;97014.19;;;14.29;74.17
16094;BME280;8151;47.824;12.092;2022-10-17T06:14:38;97012.16;;;14.31;74.36
16094;BME280;8151;47.824;12.092;2022-10-17T06:17:07;97020.09;;;14.40;74.24
16094;BME280;8151;47.824;12.092;2022-10-17T06:19:42;97025.25;;;14.41;74.05
16094;BME280;8151;47.824;12.092;2022-10-17T06:22:11;97025.91;;;14.43;73.77
16094;BME280;8151;47.824;12.092;2022-10-17T06:24:39;97032.41;;;14.41;74.19
16094;BME280;8151;47.824;12.092;2022-10-17T06:27:08;97022.59;;;14.41;73.72
16094;BME280;8151;47.824;12.092;2022-10-17T06:29:38;97030.03;;;14.46;74.14
16094;BME280;8151;47.824;12.092;2022-10-17T06:32:08;97034.00;;;14.50;73.58
16094;BME280;8151;47.824;12.092;2022-10-17T06:34:41;97039.16;;;14.51;73.93
16094;BME280;8151;47.824;12.092;2022-10-17T06:37:09;97041.66;;;14.53;73.60
16094;BME280;8151;47.824;12.092;2022-10-17T06:39:38;97051.78;;;14.57;73.42
16094;BME280;8151;47.824;12.092;2022-10-17T06:42:06;97052.28;;;14.61;73.50
16094;BME280;8151;47.824;12.092;2022-10-17T06:44:35;97057.59;;;14.61;73.41
16094;BME280;8151;47.824;12.092;2022-10-17T06:47:03;97059.44;;;14.61;73.20
16094;BME280;8151;47.824;12.092;2022-10-17T06:49:33;97067.09;;;14.64;72.99
16094;BME280;8151;47.824;12.092;2022-10-17T06:52:01;97071.06;;;14.68;73.46
16094;BME280;8151;47.824;12.092;2022-10-17T06:54:30;97076.84;;;14.71;73.22
16094;BME280;8151;47.824;12.092;2022-10-17T06:56:58;97064.38;;;14.72;73.05
16094;BME280;8151;47.824;12.092;2022-10-17T06:59:27;97083.72;;;14.66;73.24
16094;BME280;8151;47.824;12.092;2022-10-17T07:01:55;97076.25;;;14.53;73.25
16094;BME280;8151;47.824;12.092;2022-10-17T07:04:23;97085.28;;;14.44;73.68
16094;BME280;8151;47.824;12.092;2022-10-17T07:06:53;97083.50;;;14.36;73.82
16094;BME280;8151;47.824;12.092;2022-10-17T07:09:22;97091.50;;;14.36;73.89
16094;BME280;8151;47.824;12.092;2022-10-17T07:11:51;97085.00;;;14.38;74.12
16094;BME280;8151;47.824;12.092;2022-10-17T07:14:19;97088.13;;;14.42;73.83
16094;BME280;8151;47.824;12.092;2022-10-17T07:16:47;97089.97;;;14.42;73.82
16094;BME280;8151;47.824;12.092;2022-10-17T07:19:16;97093.00;;;14.38;74.22
16094;BME280;8151;47.824;12.092;2022-10-17T07:21:44;97102.47;;;14.41;74.15
16094;BME280;8151;47.824;12.092;2022-10-17T07:24:14;97103.94;;;14.44;74.33
16094;BME280;8151;47.824;12.092;2022-10-17T07:26:43;97102.69;;;14.31;74.79
16094;BME280;8151;47.824;12.092;2022-10-17T07:29:11;97110.81;;;14.30;75.08
16094;BME280;8151;47.824;12.092;2022-10-17T07:31:40;97107.31;;;14.37;75.31
16094;BME280;8151;47.824;12.092;2022-10-17T07:34:08;97114.38;;;14.53;74.95
16094;BME280;8151;47.824;12.092;2022-10-17T07:36:36;97114.31;;;14.70;74.83
16094;BME280;8151;47.824;12.092;2022-10-17T07:39:05;97119.47;;;14.71;74.64
16094;BME280;8151;47.824;12.092;2022-10-17T07:41:35;97116.38;;;14.83;74.90
16094;BME280;8151;47.824;12.092;2022-10-17T07:44:04;97120.31;;;14.95;74.36
16094;BME280;8151;47.824;12.092;2022-10-17T07:46:32;97120.25;;;15.03;74.70
16094;BME280;8151;47.824;12.092;2022-10-17T07:49:01;97121.22;;;15.10;74.30
16094;BME280;8151;47.824;12.092;2022-10-17T07:51:29;97114.88;;;15.11;74.62
16094;BME280;8151;47.824;12.092;2022-10-17T07:53:58;97120.13;;;15.20;74.55
16094;BME280;8151;47.824;12.092;2022-10-17T07:56:26;97129.06;;;15.27;74.60
16094;BME280;8151;47.824;12.092;2022-10-17T07:58:57;97128.44;;;15.25;74.82
16094;BME280;8151;47.824;12.092;2022-10-17T08:01:29;97130.91;;;15.26;74.96
16094;BME280;8151;47.824;12.092;2022-10-17T08:03:58;97126.72;;;15.32;75.17
16094;BME280;8151;47.824;12.092;2022-10-17T08:06:26;97129.66;;;15.37;75.48
16094;BME280;8151;47.824;12.092;2022-10-17T08:08:55;97128.09;;;15.43;75.45
16094;BME280;8151;47.824;12.092;2022-10-17T08:11:25;97129.06;;;15.50;75.55
16094;BME280;8151;47.824;12.092;2022-10-17T08:13:53;97115.47;;;15.60;75.79
16094;BME280;8151;47.824;12.092;2022-10-17T08:16:23;97120.25;;;15.64;75.48
16094;BME280;8151;47.824;12.092;2022-10-17T08:18:51;97120.69;;;15.76;75.33
16094;BME280;8151;47.824;12.092;2022-10-17T08:21:19;97123.72;;;15.88;75.29
16094;BME280;8151;47.824;12.092;2022-10-17T08:23:48;97113.22;;;16.01;74.92
16094;BME280;8151;47.824;12.092;2022-10-17T08:26:16;97111.94;;;16.12;74.71
16094;BME280;8151;47.824;12.092;2022-10-17T08:28:46;97120.94;;;16.26;74.34
16094;BME280;8151;47.824;12.092;2022-10-17T08:31:17;97115.13;;;16.37;73.74
16094;BME280;8151;47.824;12.092;2022-10-17T08:33:48;97117.50;;;16.47;73.54
16094;BME280;8151;47.824;12.092;2022-10-17T08:36:19;97119.72;;;16.58;73.37
16094;BME280;8151;47.824;12.092;2022-10-17T08:38:48;97125.41;;;16.70;73.13
16094;BME280;8151;47.824;12.092;2022-10-17T08:41:31;97125.09;;;16.80;72.80
16094;BME280;8151;47.824;12.092;2022-10-17T08:44:10;97116.78;;;16.89;72.43
16094;BME280;8151;47.824;12.092;2022-10-17T08:46:44;97118.53;;;16.97;71.94
16094;BME280;8151;47.824;12.092;2022-10-17T08:49:22;97110.38;;;17.05;71.48
16094;BME280;8151;47.824;12.092;2022-10-17T08:51:56;97110.88;;;17.16;71.54
16094;BME280;8151;47.824;12.092;2022-10-17T08:54:33;97109.28;;;17.21;71.20
16094;BME280;8151;47.824;12.092;2022-10-17T08:57:10;97111.22;;;17.27;71.08
16094;BME280;8151;47.824;12.092;2022-10-17T08:59:38;97107.56;;;17.35;70.93
16094;BME280;8151;47.824;12.092;2022-10-17T09:02:21;97103.09;;;17.42;70.45
16094;BME280;8151;47.824;12.092;2022-10-17T09:05:32;97107.91;;;17.54;69.98
16094;BME280;8151;47.824;12.092;2022-10-17T09:08:13;97110.44;;;17.62;70.23
16094;BME280;8151;47.824;12.092;2022-10-17T09:10:51;97112.34;;;17.68;70.01
16094;BME280;8151;47.824;12.092;2022-10-17T09:13:32;97102.31;;;17.77;69.60
16094;BME280;8151;47.824;12.092;2022-10-17T09:16:13;97108.13;;;17.80;69.54
16094;BME280;8151;47.824;12.092;2022-10-17T09:18:53;97096.84;;;17.85;69.38
16094;BME280;8151;47.824;12.092;2022-10-17T09:21:32;97097.28;;;17.88;69.04
16094;BME280;8151;47.824;12.092;2022-10-17T09:24:09;97103.69;;;17.94;69.03
16094;BME280;8151;47.824;12.092;2022-10-17T09:26:44;97108.06;;;18.02;68.71
16094;BME280;8151;47.824;12.092;2022-10-17T09:29:20;97101.91;;;18.08;68.46
16094;BME280;8151;47.824;12.092;2022-10-17T09:31:55;97107.97;;;18.17;68.17
16094;BME280;8151;47.824;12.092;2022-10-17T09:34:27;97103.44;;;18.24;68.01
16094;BME280;8151;47.824;12.092;2022-10-17T09:36:59;97098.94;;;18.31;68.00
16094;BME280;8151;47.824;12.092;2022-10-17T09:39:28;97104.13;;;18.39;67.67
16094;BME280;8151;47.824;12.092;2022-10-17T09:41:59;97104.59;;;18.49;67.42
16094;BME280;8151;47.824;12.092;2022-10-17T09:44:31;97098.66;;;18.61;67.49
16094;BME280;8151;47.824;12.092;2022-10-17T09:47:23;97104.25;;;18.73;67.11
16094;BME280;8151;47.824;12.092;2022-10-17T09:49:53;97106.38;;;18.84;67.27
16094;BME280;8151;47.824;12.092;2022-10-17T09:52:26;97103.53;;;18.92;66.82
16094;BME280;8151;47.824;12.092;2022-10-17T09:54:59;97106.22;;;18.99;66.94
16094;BME280;8151;47.824;12.092;2022-10-17T09:57:52;97107.88;;;19.06;66.74
16094;BME280;8151;47.824;12.092;2022-10-17T10:00:23;97116.78;;;19.14;67.13
16094;BME280;8151;47.824;12.092;2022-10-17T10:03:07;97121.94;;;19.22;66.51
16094;BME280;8151;47.824;12.092;2022-10-17T10:05:36;97118.44;;;19.28;66.92
16094;BME280;8151;47.824;12.092;2022-10-17T10:08:13;97116.38;;;19.37;66.45
16094;BME280;8151;47.824;12.092;2022-10-17T10:10:42;97121.72;;;19.50;66.31
16094;BME280;8151;47.824;12.092;2022-10-17T10:13:18;97110.59;;;19.60;66.32
16094;BME280;8151;47.824;12.092;2022-10-17T10:15:49;97112.84;;;19.70;66.06
16094;BME280;8151;47.824;12.092;2022-10-17T10:18:29;97123.44;;;19.78;65.79
16094;BME280;8151;47.824;12.092;2022-10-17T10:21:04;97116.59;;;19.82;65.71
16094;BME280;8151;47.824;12.092;2022-10-17T10:23:35;97121.34;;;19.93;65.46
16094;BME280;8151;47.824;12.092;2022-10-17T10:26:23;97117.78;;;20.06;64.40
16094;BME280;8151;47.824;12.092;2022-10-17T10:28:55;97119.03;;;20.17;64.65
16094;BME280;8151;47.824;12.092;2022-10-17T10:31:27;97119.59;;;20.25;64.07
16094;BME280;8151;47.824;12.092;2022-10-17T10:33:59;97116.47;;;20.35;64.06
16094;BME280;8151;47.824;12.092;2022-10-17T10:36:45;97117.06;;;20.44;63.30
16094;BME280;8151;47.824;12.092;2022-10-17T10:39:44;97115.56;;;20.55;63.39
16094;BME280;8151;47.824;12.092;2022-10-17T10:42:20;97115.78;;;20.67;63.57
16094;BME280;8151;47.824;12.092;2022-10-17T10:44:49;97116.75;;;20.79;63.38
16094;BME280;8151;47.824;12.092;2022-10-17T10:47:21;97118.97;;;20.89;63.10
16094;BME280;8151;47.824;12.092;2022-10-17T10:49:51;97114.16;;;20.97;62.59
16094;BME280;8151;47.824;12.092;2022-10-17T10:52:28;97111.22;;;21.06;61.97
16094;BME280;8151;47.824;12.092;2022-10-17T10:55:06;97122.34;;;21.16;61.65
16094;BME280;8151;47.824;12.092;2022-10-17T10:57:42;97117.75;;;21.23;61.71
16094;BME280;8151;47.824;12.092;2022-10-17T11:00:15;97118.75;;;21.29;61.26
16094;BME280;8151;47.824;12.092;2022-10-17T11:02:53;97114.31;;;21.34;61.09
16094;BME280;8151;47.824;12.092;2022-10-17T11:05:38;97107.03;;;21.41;61.02
16094;BME280;8151;47.824;12.092;2022-10-17T11:08:15;97111.75;;;21.53;60.82
16094;BME280;8151;47.824;12.092;2022-10-17T11:10:58;97110.84;;;21.59;60.77
16094;BME280;8151;47.824;12.092;2022-10-17T11:13:31;97110.81;;;21.66;61.18
16094;BME280;8151;47.824;12.092;2022-10-17T11:16:11;97116.75;;;21.74;60.91
16094;BME280;8151;47.824;12.092;2022-10-17T11:18:45;97109.13;;;21.90;60.48
16094;BME280;8151;47.824;12.092;2022-10-17T11:21:17;97103.03;;;22.01;60.08
16094;BME280;8151;47.824;12.092;2022-10-17T11:23:57;97106.63;;;22.13;59.75
16094;BME280;8151;47.824;12.092;2022-10-17T11:26:29;97110.25;;;22.26;59.32
16094;BME280;8151;47.824;12.092;2022-10-17T11:29:02;97105.38;;;22.34;58.94
16094;BME280;8151;47.824;12.092;2022-10-17T11:31:36;97106.72;;;22.44;58.43
16094;BME280;8151;47.824;12.092;2022-10-17T11:34:09;97099.16;;;22.52;57.89
16094;BME280;8151;47.824;12.092;2022-10-17T11:36:55;97102.38;;;22.61;57.32
16094;BME280;8151;47.824;12.092;2022-10-17T11:39:29;97101.25;;;22.69;56.79
16094;BME280;8151;47.824;12.092;2022-10-17T11:42:03;97102.56;;;22.78;56.54
16094;BME280;8151;47.824;12.092;2022-10-17T11:44:36;97101.44;;;22.86;56.27
16094;BME280;8151;47.824;12.092;2022-10-17T11:47:12;97106.72;;;22.92;55.77
16094;BME280;8151;47.824;12.092;2022-10-17T11:49:44;97102.88;;;23.00;55.51
16094;BME280;8151;47.824;12.092;2022-10-17T11:52:27;97100.38;;;23.05;55.09
16094;BME280;8151;47.824;12.092;2022-10-17T11:55:21;97108.94;;;23.14;54.78
16094;BME280;8151;47.824;12.092;2022-10-17T11:58:05;97108.59;;;23.22;53.58
16094;BME280;8151;47.824;12.092;2022-10-17T12:00:50;97101.09;;;23.24;54.03
16094;BME280;8151;47.824;12.092;2022-10-17T12:03:33;97105.69;;;23.24;53.77
16094;BME280;8151;47.824;12.092;2022-10-17T12:06:14;97099.72;;;23.33;53.77
16094;BME280;8151;47.824;12.092;2022-10-17T12:08:54;97100.91;;;23.37;54.08
16094;BME280;8151;47.824;12.092;2022-10-17T12:11:36;97103.25;;;23.46;53.54
16094;BME280;8151;47.824;12.092;2022-10-17T12:14:38;97106.31;;;23.49;53.24
16094;BME280;8151;47.824;12.092;2022-10-17T12:17:24;97102.44;;;23.45;53.72
16094;BME280;8151;47.824;12.092;2022-10-17T12:20:27;97110.31;;;23.47;53.35
16094;BME280;8151;47.824;12.092;2022-10-17T12:25:50;97100.94;;;23.61;53.23
16094;BME280;8151;47.824;12.092;2022-10-17T12:28:25;97103.19;;;23.64;53.04
16094;BME280;8151;47.824;12.092;2022-10-17T12:30:59;97100.94;;;23.73;52.54
16094;BME280;8151;47.824;12.092;2022-10-17T12:33:33;97098.53;;;23.83;52.72
16094;BME280;8151;47.824;12.092;2022-10-17T12:39:48;97099.69;;;23.99;52.67
16094;BME280;8151;47.824;12.092;2022-10-17T12:42:32;97096.41;;;24.09;52.19
16094;BME280;8151;47.824;12.092;2022-10-17T12:45:47;97094.50;;;24.21;52.22
16094;BME280;8151;47.824;12.092;2022-10-17T12:51:22;97087.53;;;24.25;52.17
16094;BME280;8151;47.824;12.092;2022-10-17T12:54:10;97094.97;;;24.30;52.29
16094;BME280;8151;47.824;12.092;2022-10-17T12:56:41;97087.53;;;24.37;52.07
16094;BME280;8151;47.824;12.092;2022-10-17T12:59:14;97089.28;;;24.43;51.55
16094;BME280;8151;47.824;12.092;2022-10-17T13:01:46;97086.09;;;24.46;51.25
16094;BME280;8151;47.824;12.092;2022-10-17T13:04:16;97089.53;;;24.53;50.63
16094;BME280;8151;47.824;12.092;2022-10-17T13:06:48;97091.25;;;24.60;50.54
16094;BME280;8151;47.824;12.092;2022-10-17T13:09:25;97084.88;;;24.66;50.57
16094;BME280;8151;47.824;12.092;2022-10-17T13:11:56;97077.09;;;24.69;49.70
16094;BME280;8151;47.824;12.092;2022-10-17T13:14:26;97086.19;;;24.63;49.83
16094;BME280;8151;47.824;12.092;2022-10-17T13:16:57;97081.03;;;24.62;49.56
16094;BME280;8151;47.824;12.092;2022-10-17T13:19:29;97077.34;;;24.68;49.27
16094;BME280;8151;47.824;12.092;2022-10-17T13:22:01;97080.06;;;24.68;49.27
16094;BME280;8151;47.824;12.092;2022-10-17T13:24:35;97085.81;;;24.71;48.97
16094;BME280;8151;47.824;12.092;2022-10-17T13:27:06;97080.16;;;24.73;48.90
16094;BME280;8151;47.824;12.092;2022-10-17T13:29:34;97082.63;;;24.74;48.88
16094;BME280;8151;47.824;12.092;2022-10-17T13:32:11;97071.66;;;24.81;48.36
16094;BME280;8151;47.824;12.092;2022-10-17T13:34:39;97077.16;;;24.86;48.61
16094;BME280;8151;47.824;12.092;2022-10-17T13:37:13;97071.00;;;24.91;48.09
16094;BME280;8151;47.824;12.092;2022-10-17T13:39:45;97067.59;;;24.95;47.85
16094;BME280;8151;47.824;12.092;2022-10-17T13:42:37;97069.47;;;24.95;47.63